This is the latest recevied weather packets stored in our database for station/object SR5NLK-1. If no packets are shown the sender has not sent any weather packets the latest 10 day(s).
| Time | Temp. | Humidity | Pressure | Rain* | Wind** | Luminosity | Snow |
|---|---|---|---|---|---|---|---|
| 1787643941 | 27.22° C | 49% | 1044.6 hPa | 0 mm | - | - | - |
| 1787643640 | 27.22° C | 46% | 1068.9 hPa | 0 mm | - | - | - |
| 1787643626 | 26.67° C | 51% | 1075.3 hPa | 0 mm | - | - | - |
| 1787643604 | 27.22° C | 46% | 1068.9 hPa | 0 mm | - | - | - |
| 1787643305 | 27.22° C | 47% | 1073.5 hPa | 0 mm | - | - | - |
| 1787643253 | 26.11° C | 51% | 1033.4 hPa | 0 mm | - | - | - |
| 1787643005 | 27.22° C | 47% | 1056.4 hPa | 0 mm | - | - | - |
| 1787642946 | 25.56° C | 52% | 1068.9 hPa | 0 mm | - | - | - |
| 1787642405 | 27.22° C | 48% | 1076.8 hPa | 0 mm | - | - | - |
| 1787642329 | 25.56° C | 52% | 1041 hPa | 0 mm | - | - | - |
| 1787642105 | 27.22° C | 47% | 1086.2 hPa | 0 mm | - | - | - |
| 1787641923 | 25.56° C | 53% | 1094.1 hPa | 0 mm | - | - | - |
| 1787641805 | 27.22° C | 48% | 1022.5 hPa | 0 mm | - | - | - |
| 1787641644 | 25.56° C | 55% | 1083.2 hPa | 0 mm | - | - | - |
| 1787641624 | 27.22° C | 49% | 999.5 hPa | 0 mm | - | - | - |
| 1787641505 | 26.67° C | 49% | 1085.9 hPa | 0 mm | - | - | - |
| 1787641205 | 26.67° C | 50% | 1081.6 hPa | 0 mm | - | - | - |
| 1787641191 | 25° C | 56% | 1037.9 hPa | 0 mm | - | - | - |
| 1787640905 | 26.11° C | 50% | 1042.5 hPa | 0 mm | - | - | - |
| 1787640874 | 25° C | 57% | 1074.6 hPa | 0 mm | - | - | - |
| 1787640605 | 26.11° C | 50% | 1031.9 hPa | 0 mm | - | - | - |
| 1787640469 | 24.44° C | 60% | 1072.1 hPa | 0 mm | - | - | - |
| 1787640305 | 26.67° C | 48% | 1086.3 hPa | 0 mm | - | - | - |
| 1787640005 | 27.22° C | 49% | 1044.6 hPa | 0 mm | - | - | - |
| 1787639728 | 22.78° C | 63% | 1039.6 hPa | 0 mm | - | - | - |
* Rain latest hour (hover to see other rain measurements)
** Current wind speed in m/s (hover to see current wind gust speed)